Flight Track Log - Related Links

Times and Time Zones

All times are in EDT time to prevent confusion due to time zone crossing. See the NSH339 flight status page for this flight to view local times or setup timezone preferences in your user account.

Time Position Orientation Groundspeed Altitude Reporting Facility
EDT Latitude Longitude Course Direction KTS MPH feet Rate Location/Type
Tue 02:04:30 PM 35.2922 -80.6622 168° South 265 305 3,000  Level Atlanta Center
Tue 02:05:31 PM 35.2186 -80.6500 172° South 275 316 3,000 197 Level Atlanta Center
Tue 02:06:32 PM 35.1478 -80.6478 179° South 259 298 3,400 1,824 Climbing Atlanta Center
Tue 02:07:36 PM 35.0736 -80.6786 199° South 275 316 6,800 3,000 Climbing Atlanta Center
Tue 02:08:36 PM 35.0061 -80.7322 213° Southwest 273 314 9,600 2,600 Climbing Atlanta Center
Tue 02:09:00 PM 34.8463 -80.9033 168° South  Level FlightAware Approximate
Tue 02:09:36 PM 34.9269 -80.7428 186° South 278 320 12,000  Level Atlanta Center
Tue 02:11:42 PM 34.7489 -80.7650 186° South 312 359 15,900 1,839 Climbing Jacksonville Center
Tue 02:12:42 PM 34.6614 -80.7747 185° South 312 359 17,700 1,650 Climbing Jacksonville Center
Tue 02:13:42 PM 34.5742 -80.7844 185° South 317 365 19,200 1,450 Climbing Jacksonville Center
Tue 02:14:42 PM 34.4844 -80.7969 187° South 322 371 20,600 1,250 Climbing Jacksonville Center
Tue 02:15:42 PM 34.3928 -80.8042 184° South 329 379 21,700 950 Climbing Jacksonville Center
Tue 02:16:42 PM 34.2969 -80.8139 185° South 334 384 22,500 700 Climbing Jacksonville Center
Tue 02:17:42 PM 34.2094 -80.8186 183° South 328 377 23,100 800 Climbing Jacksonville Center
Tue 02:18:42 PM 34.1136 -80.8283 185° South 333 383 24,100 950 Climbing Jacksonville Center
Tue 02:19:42 PM 34.0139 -80.8408 186° South 349 402 25,000 750 Climbing Jacksonville Center
Tue 02:20:42 PM 33.9117 -80.8406 180° South 360 414 25,600 1,050 Climbing Jacksonville Center
Tue 02:21:42 PM 33.8133 -80.8378 179° South 366 421 27,100 1,450 Climbing Jacksonville Center
Tue 02:22:42 PM 33.7133 -80.8378 180° South 361 415 28,500 1,350 Climbing Jacksonville Center
Tue 02:23:42 PM 33.6172 -80.8350 179° South 361 415 29,800 1,050 Climbing Jacksonville Center
Tue 02:24:42 PM 33.5169 -80.8322 179° South 361 415 30,600 650 Climbing Jacksonville Center
Tue 02:25:42 PM 33.4083 -80.8247 177° South 373 429 31,100 500 Climbing Jacksonville Center
Tue 02:26:42 PM 33.2997 -80.8175 177° South 384 442 31,600 450 Climbing Jacksonville Center
Tue 02:27:42 PM 33.1889 -80.8100 177° South 396 456 32,000 200 Climbing Jacksonville Center
Tue 02:28:42 PM 33.0719 -80.8006 176° South 410 472 32,000  Level Jacksonville Center
Tue 02:29:42 PM 32.9550 -80.7908 176° South 415 478 32,000  Level Jacksonville Center
Tue 02:30:42 PM 32.8483 -80.7833 177° South 426 490 32,000  Level Jacksonville Center
Tue 02:31:42 PM 32.7292 -80.7714 175° South 426 490 32,000  Level Jacksonville Center
Tue 02:32:42 PM 32.6100 -80.7717 180° South 426 490 32,000  Level Jacksonville Center
Tue 02:33:42 PM 32.4958 -80.7964 190° South 426 490 32,000  Level Jacksonville Center
Tue 02:34:42 PM 32.3836 -80.8336 196° South 420 483 32,000  Level Jacksonville Center
Tue 02:35:42 PM 32.2550 -80.8758 196° South 425 489 32,000  Level Jacksonville Center
Tue 02:36:42 PM 32.1489 -80.9100 195° South 438 504 32,000 -600 Level Jacksonville Center
Tue 02:37:42 PM 32.0158 -80.9519 195° South 450 518 30,800 -1,000 Descending Jacksonville Center
Tue 02:38:42 PM 31.9017 -80.9886 195° South 444 511 30,000 -400 Descending Jacksonville Center
Tue 02:39:42 PM 31.7958 -81.0250 196° South 444 511 30,000  Level Jacksonville Center
Tue 02:40:42 PM 31.6669 -81.0667 195° South 439 505 30,000  Level Jacksonville Center
Tue 02:41:42 PM 31.5483 -81.1033 195° South 433 498 30,000 -300 Level Jacksonville Center
Tue 02:42:42 PM 31.4425 -81.1369 195° South 433 498 29,400 -1,100 Descending Jacksonville Center
Tue 02:43:42 PM 31.3281 -81.1731 195° South 433 498 27,800 -1,550 Descending Jacksonville Center
Tue 02:44:42 PM 31.2092 -81.1703 179° South 433 498 26,300 -1,500 Descending Jacksonville Center
Tue 02:45:42 PM 31.0878 -81.1678 179° South 424 488 24,800 -2,000 Descending Jacksonville Center
Tue 02:46:42 PM 30.9689 -81.1650 179° South 424 488 22,300 -3,100 Descending Jacksonville Center
Tue 02:47:42 PM 30.8622 -81.1622 179° South 411 473 18,600 -3,574 Descending Jacksonville Center
Tue 02:48:16 PM 30.7914 -81.1586 177° South 382 440 16,700 -3,284 Descending Jacksonville Center
Tue 02:49:17 PM 30.6847 -81.1581 180° South 387 445 13,400 -2,508 Descending Jacksonville Center
Tue 02:50:18 PM 30.5786 -81.1747 188° South 314 361 11,600 -1,672 Descending Jacksonville Center
Tue 02:51:19 PM 30.4975 -81.1931 191° South 294 338 10,000 -1,820 Descending Jacksonville Center
Tue 02:52:20 PM 30.4203 -81.2136 193° South 284 327 7,900 -2,016 Descending Jacksonville Center
Tue 02:53:21 PM 30.3456 -81.2342 193° South 274 315 5,900 -1,475 Descending Jacksonville Center
Tue 02:54:22 PM 30.2706 -81.2497 190° South 264 304 4,900 -492 Descending Jacksonville Center
Tue 02:55:23 PM 30.1997 -81.2703 194° South 254 292 4,900 -344 Level Jacksonville Center
Tue 02:56:24 PM 30.1292 -81.2883 192° South 251 289 4,200 -942 Descending Jacksonville Center
Tue 02:57:24 PM 30.0689 -81.3253 208° Southwest 228 262 3,000 -1,096 Descending Jacksonville Center
Tue 02:58:19 PM 30.0339 -81.3547 216° Southwest 173 199 2,100 -1,086 Descending Jacksonville Center
Tue 02:59:20 PM 29.9967 -81.3769 207° Southwest 126 145 900 -703 Descending Jacksonville Center
Tue 03:00:27 PM 29.9756 -81.3653 154° Southeast 107 123 600 -269 Descending Jacksonville Center

Login

Don't have an account? Register now (free) for customized features, flight alerts, and more!